createdAt,value
2022-09-23T00:01:07.691Z,2.72
2022-09-23T00:03:37.317Z,2.64
2022-09-23T00:06:07.263Z,2.64
2022-09-23T00:08:35.247Z,2.68
2022-09-23T00:11:06.560Z,2.58
2022-09-23T00:13:34.683Z,2.50
2022-09-23T00:16:09.966Z,2.54
2022-09-23T00:18:37.055Z,2.54
2022-09-23T00:21:08.593Z,2.46
2022-09-23T00:23:35.176Z,2.51
2022-09-23T00:26:04.003Z,2.49
2022-09-23T00:28:31.140Z,2.47
2022-09-23T00:31:01.977Z,2.38
2022-09-23T00:33:29.953Z,2.35
2022-09-23T00:36:04.951Z,2.38
2022-09-23T00:38:31.970Z,2.30
2022-09-23T00:40:58.720Z,2.12
2022-09-23T00:44:01.472Z,2.21
2022-09-23T00:46:39.077Z,2.31
2022-09-23T00:49:09.133Z,2.29
2022-09-23T00:51:39.244Z,2.21
2022-09-23T00:54:06.676Z,2.22
2022-09-23T00:56:34.215Z,2.21
2022-09-23T00:59:01.440Z,2.20
2022-09-23T01:01:28.178Z,2.19
2022-09-23T01:03:55.984Z,2.18
2022-09-23T01:06:22.663Z,2.21
2022-09-23T01:08:49.484Z,2.21
2022-09-23T01:11:44.372Z,2.15
2022-09-23T01:14:35.737Z,2.12
2022-09-23T01:17:21.043Z,2.01
2022-09-23T01:20:08.584Z,1.95
2022-09-23T01:22:44.722Z,1.96
2022-09-23T01:25:37.813Z,2.03
2022-09-23T01:28:46.251Z,1.94
2022-09-23T01:31:23.607Z,2.01
2022-09-23T01:33:57.154Z,1.97
2022-09-23T01:36:37.348Z,1.94
2022-09-23T01:39:11.524Z,1.96
2022-09-23T01:41:44.333Z,2.00
2022-09-23T01:44:19.213Z,2.14
2022-09-23T01:47:00.863Z,2.09
2022-09-23T01:49:49.512Z,2.03
2022-09-23T01:52:40.584Z,2.12
2022-09-23T01:55:21.082Z,2.13
2022-09-23T01:57:57.732Z,2.09
2022-09-23T02:00:24.840Z,2.20
2022-09-23T02:02:59.043Z,2.28
2022-09-23T02:05:30.843Z,2.35
2022-09-23T02:08:05.495Z,2.38
2022-09-23T02:10:37.608Z,2.35
2022-09-23T02:13:15.712Z,2.17
2022-09-23T02:15:50.609Z,2.14
2022-09-23T02:18:24.245Z,1.99
2022-09-23T02:20:54.595Z,2.06
2022-09-23T02:23:25.503Z,2.07
2022-09-23T02:26:12.514Z,2.13
2022-09-23T02:29:08.169Z,2.18
2022-09-23T02:31:42.322Z,2.23
2022-09-23T02:34:12.040Z,2.17
2022-09-23T02:36:57.499Z,2.21
2022-09-23T02:39:30.000Z,2.16
2022-09-23T02:42:07.770Z,2.31
2022-09-23T02:44:34.451Z,2.10
2022-09-23T02:47:01.254Z,2.01
2022-09-23T02:49:32.441Z,2.12
2022-09-23T02:52:03.663Z,1.96
2022-09-23T02:54:32.317Z,1.92
2022-09-23T02:57:01.064Z,1.86
2022-09-23T02:59:27.903Z,2.10
2022-09-23T03:02:32.228Z,2.05
2022-09-23T03:05:23.973Z,2.20
2022-09-23T03:08:13.070Z,2.24
2022-09-23T03:10:56.003Z,2.16
2022-09-23T03:13:35.294Z,2.07
2022-09-23T03:16:25.521Z,1.98
2022-09-23T03:19:02.741Z,2.00
2022-09-23T03:21:33.960Z,2.01
2022-09-23T03:24:03.292Z,1.85
2022-09-23T03:26:33.778Z,1.85
2022-09-23T03:29:03.737Z,1.76
2022-09-23T03:31:31.977Z,1.84
2022-09-23T03:34:00.630Z,2.12
2022-09-23T03:36:51.733Z,2.04
2022-09-23T03:39:30.130Z,2.06
2022-09-23T03:42:00.106Z,2.08
2022-09-23T03:44:29.083Z,2.09
2022-09-23T03:46:59.835Z,2.14
2022-09-23T03:49:28.926Z,2.27
2022-09-23T03:51:56.102Z,2.40
2022-09-23T03:54:22.913Z,2.49
2022-09-23T03:56:49.792Z,2.44
2022-09-23T03:59:16.725Z,2.30
2022-09-23T04:01:43.956Z,2.15
2022-09-23T04:04:10.782Z,2.12
2022-09-23T04:06:37.457Z,2.09
2022-09-23T04:09:04.396Z,2.31
2022-09-23T04:11:31.054Z,2.42
2022-09-23T04:13:57.873Z,2.44
2022-09-23T04:16:24.976Z,2.42
2022-09-23T04:18:51.824Z,2.30
2022-09-23T04:21:18.448Z,2.13
2022-09-23T04:23:46.559Z,2.20
2022-09-23T04:26:13.513Z,2.21
2022-09-23T04:28:40.126Z,2.12
2022-09-23T04:31:08.171Z,2.20
2022-09-23T04:33:34.941Z,2.21
2022-09-23T04:36:01.637Z,2.05
2022-09-23T04:38:28.245Z,1.81
2022-09-23T04:40:54.830Z,1.82
2022-09-23T04:43:23.533Z,2.05
2022-09-23T04:46:05.394Z,2.17
2022-09-23T04:48:32.441Z,2.35
2022-09-23T04:51:06.770Z,2.26
2022-09-23T04:53:33.869Z,2.16
2022-09-23T04:56:02.109Z,2.03
2022-09-23T04:58:29.166Z,1.96
2022-09-23T05:01:01.707Z,1.98
2022-09-23T05:03:34.364Z,1.94
2022-09-23T05:06:02.183Z,2.11
2022-09-23T05:08:29.436Z,2.33
2022-09-23T05:11:00.219Z,2.28
2022-09-23T05:13:27.255Z,2.32
2022-09-23T05:16:01.816Z,2.30
2022-09-23T05:18:31.410Z,2.36
2022-09-23T05:20:58.513Z,2.28
2022-09-23T05:23:25.545Z,2.35
2022-09-23T05:26:03.430Z,2.48
2022-09-23T05:28:32.840Z,2.45
2022-09-23T05:31:03.297Z,2.51
2022-09-23T05:33:30.403Z,2.36
2022-09-23T05:35:57.243Z,2.44
2022-09-23T05:38:23.995Z,2.34
2022-09-23T05:41:17.383Z,2.51
2022-09-23T05:43:44.612Z,2.51
2022-09-23T05:46:16.373Z,2.67
2022-09-23T05:48:45.908Z,2.76
2022-09-23T05:51:17.705Z,2.75
2022-09-23T05:53:47.829Z,2.75
2022-09-23T05:56:19.444Z,2.68
2022-09-23T05:58:50.179Z,2.75
2022-09-23T06:01:21.326Z,2.74
2022-09-23T06:03:49.361Z,2.62
2022-09-23T06:06:20.327Z,2.63
2022-09-23T06:08:47.840Z,2.59
2022-09-23T06:11:15.113Z,2.47
2022-09-23T06:13:42.273Z,2.52
2022-09-23T06:16:11.767Z,2.69
2022-09-23T06:18:40.219Z,2.70
2022-09-23T06:21:07.435Z,2.69
2022-09-23T06:23:37.600Z,2.78
2022-09-23T06:26:09.886Z,2.77
2022-09-23T06:28:39.652Z,2.81
2022-09-23T06:31:13.144Z,2.86
2022-09-23T06:33:43.226Z,2.73
2022-09-23T06:36:10.813Z,2.69
2022-09-23T06:38:48.631Z,2.74
2022-09-23T06:41:15.525Z,2.72
2022-09-23T06:43:42.341Z,2.71
2022-09-23T06:46:10.101Z,2.70
2022-09-23T06:48:37.010Z,2.96
2022-09-23T06:51:07.502Z,2.88
2022-09-23T06:53:34.890Z,2.93
2022-09-23T06:56:04.295Z,3.05
2022-09-23T06:58:32.233Z,3.09
2022-09-23T07:01:03.082Z,3.01
2022-09-23T07:03:31.112Z,3.22
2022-09-23T07:05:58.392Z,3.54
2022-09-23T07:08:26.635Z,3.51
2022-09-23T07:10:54.593Z,3.72
2022-09-23T07:13:21.813Z,3.58
2022-09-23T07:15:58.377Z,3.77
2022-09-23T07:18:26.314Z,3.79
2022-09-23T07:20:53.613Z,3.88
2022-09-23T07:23:20.809Z,3.79
2022-09-23T07:25:50.383Z,3.68
2022-09-23T07:28:17.873Z,3.64
2022-09-23T07:30:55.361Z,3.77
2022-09-23T07:33:31.588Z,4.06
2022-09-23T07:35:59.321Z,4.10
2022-09-23T07:38:30.368Z,4.35
2022-09-23T07:41:08.275Z,4.60
2022-09-23T07:43:35.612Z,4.56
2022-09-23T07:46:06.396Z,4.25
2022-09-23T07:48:34.541Z,4.01
2022-09-23T07:51:09.833Z,4.50
2022-09-23T07:53:37.173Z,4.74
2022-09-23T07:56:06.553Z,4.90
2022-09-23T07:58:34.525Z,5.00
2022-09-23T08:01:10.447Z,4.82
2022-09-23T08:03:37.412Z,4.91
2022-09-23T08:06:12.265Z,5.18
2022-09-23T08:08:43.655Z,5.51
2022-09-23T08:11:12.471Z,5.36
2022-09-23T08:13:39.254Z,5.41
2022-09-23T08:16:06.973Z,5.45
2022-09-23T08:18:34.093Z,6.01
2022-09-23T08:21:00.909Z,6.69
2022-09-23T08:23:27.956Z,6.70
2022-09-23T08:26:00.211Z,6.77
2022-09-23T08:28:27.954Z,7.21
2022-09-23T08:30:55.204Z,7.57
2022-09-23T08:33:23.646Z,7.69
2022-09-23T08:35:51.236Z,7.84
2022-09-23T08:38:18.083Z,8.05
2022-09-23T08:40:48.503Z,7.86
2022-09-23T08:43:22.154Z,8.50
2022-09-23T08:45:51.254Z,8.51
2022-09-23T08:48:27.774Z,9.01
2022-09-23T08:50:59.822Z,9.57
2022-09-23T08:53:35.871Z,9.24
2022-09-23T08:56:20.161Z,9.90
2022-09-23T08:59:02.401Z,10.12
2022-09-23T09:01:41.940Z,9.94
2022-09-23T09:04:36.690Z,9.38
2022-09-23T09:10:22.890Z,10.21
2022-09-23T09:13:00.500Z,10.47
2022-09-23T09:15:28.469Z,9.87
2022-09-23T09:18:07.940Z,10.06
2022-09-23T09:20:41.633Z,9.69
2022-09-23T09:23:11.640Z,9.72
2022-09-23T09:25:47.121Z,10.42
2022-09-23T09:28:19.060Z,10.66
2022-09-23T09:30:50.521Z,10.29
2022-09-23T09:33:19.571Z,11.13
2022-09-23T09:36:14.397Z,11.32
2022-09-23T09:38:41.111Z,11.30
2022-09-23T09:41:17.136Z,11.06
2022-09-23T09:43:45.570Z,11.48
2022-09-23T09:46:34.295Z,11.40
2022-09-23T09:49:14.314Z,11.29
2022-09-23T09:51:42.633Z,12.00
2022-09-23T09:54:27.458Z,12.25
2022-09-23T09:56:54.757Z,12.32
2022-09-23T09:59:30.326Z,12.53
2022-09-23T10:02:14.316Z,12.52
2022-09-23T10:04:41.242Z,12.66
2022-09-23T10:07:15.927Z,12.61
2022-09-23T10:09:50.800Z,12.88
2022-09-23T10:12:47.061Z,13.01
2022-09-23T10:15:33.198Z,13.72
2022-09-23T10:18:03.541Z,14.06
2022-09-23T10:20:36.521Z,14.21
2022-09-23T10:23:08.512Z,14.11
2022-09-23T10:25:35.548Z,13.51
2022-09-23T10:28:30.969Z,13.31
2022-09-23T10:31:08.842Z,13.49
2022-09-23T10:33:47.772Z,13.69
2022-09-23T10:36:18.573Z,14.39
2022-09-23T10:39:16.841Z,14.49
2022-09-23T10:42:23.015Z,14.60
2022-09-23T10:45:24.739Z,14.74
2022-09-23T10:47:51.341Z,14.20
2022-09-23T10:50:36.053Z,14.48
2022-09-23T10:53:21.132Z,14.51
2022-09-23T10:55:53.922Z,14.84
2022-09-23T10:58:28.355Z,15.06
2022-09-23T11:01:14.393Z,15.01
2022-09-23T11:04:18.806Z,15.18
2022-09-23T11:06:48.168Z,15.36
2022-09-23T11:09:20.968Z,15.61
2022-09-23T11:12:03.030Z,15.63
2022-09-23T11:14:51.643Z,15.65
2022-09-23T11:17:46.122Z,16.05
2022-09-23T11:20:37.483Z,16.34
2022-09-23T11:23:10.262Z,15.77
2022-09-23T11:26:01.503Z,15.86
2022-09-23T11:28:55.667Z,15.72
2022-09-23T11:31:59.281Z,16.13
2022-09-23T11:35:02.746Z,16.35
2022-09-23T11:37:35.068Z,16.07
2022-09-23T11:40:15.175Z,15.58
2022-09-23T11:42:55.755Z,16.19
2022-09-23T11:45:26.540Z,16.23
2022-09-23T11:48:02.333Z,15.98
2022-09-23T11:50:34.601Z,16.54
2022-09-23T11:53:38.471Z,16.23
2022-09-23T11:56:34.576Z,16.13
2022-09-23T11:59:40.534Z,16.01
2022-09-23T12:02:19.953Z,16.81
2022-09-23T12:04:58.555Z,17.37
2022-09-23T12:07:45.096Z,17.12
2022-09-23T12:10:12.581Z,16.86
2022-09-23T12:12:42.365Z,16.86
2022-09-23T12:15:27.938Z,17.30
2022-09-23T12:18:29.088Z,16.59
2022-09-23T12:21:46.216Z,17.06
2022-09-23T12:24:24.779Z,17.49
2022-09-23T12:26:56.334Z,17.67
2022-09-23T12:29:26.087Z,17.44
2022-09-23T12:31:53.061Z,17.45
2022-09-23T12:34:49.034Z,17.10
2022-09-23T12:37:37.258Z,17.40
2022-09-23T12:40:22.258Z,17.20
2022-09-23T12:42:49.956Z,17.42
2022-09-23T12:45:31.642Z,18.21
2022-09-23T12:48:03.383Z,18.28
2022-09-23T12:51:13.151Z,18.04
2022-09-23T12:53:40.226Z,18.31
2022-09-23T12:56:33.041Z,18.38
2022-09-23T12:59:14.109Z,18.23
2022-09-23T13:01:41.270Z,18.37
2022-09-23T13:04:53.359Z,18.14
2022-09-23T13:07:25.934Z,18.56
2022-09-23T13:09:56.769Z,18.76
2022-09-23T13:12:36.212Z,18.44
2022-09-23T13:15:06.444Z,18.54
2022-09-23T13:17:37.452Z,18.76
2022-09-23T13:20:06.907Z,18.47
2022-09-23T13:22:42.641Z,18.72
2022-09-23T13:25:20.722Z,19.01
2022-09-23T13:27:53.272Z,18.65
2022-09-23T13:30:25.760Z,18.96
2022-09-23T13:33:12.796Z,19.13
2022-09-23T13:35:43.633Z,19.12
2022-09-23T13:38:11.953Z,19.16
2022-09-23T13:40:41.610Z,19.14
2022-09-23T13:43:23.855Z,18.96
2022-09-23T13:45:51.570Z,18.93
2022-09-23T13:48:19.293Z,18.91
2022-09-23T13:50:51.231Z,18.80
2022-09-23T13:53:30.042Z,18.96
2022-09-23T13:56:02.720Z,18.74
2022-09-23T13:58:31.345Z,18.95
2022-09-23T14:00:58.743Z,18.96
2022-09-23T14:03:37.130Z,18.92
2022-09-23T14:06:14.667Z,18.86
2022-09-23T14:08:44.590Z,18.83
2022-09-23T14:11:16.595Z,18.77
2022-09-23T14:13:44.548Z,18.62
2022-09-23T14:16:15.136Z,18.53
2022-09-23T14:18:45.529Z,18.34
2022-09-23T14:21:47.597Z,18.15
2022-09-23T14:24:20.008Z,18.08
2022-09-23T14:26:49.557Z,18.13
2022-09-23T14:29:23.030Z,18.11
2022-09-23T14:31:57.822Z,18.01
2022-09-23T14:35:05.560Z,17.88
2022-09-23T14:37:56.912Z,17.83
2022-09-23T14:40:27.324Z,17.65
2022-09-23T14:43:02.475Z,17.56
2022-09-23T14:45:35.377Z,17.35
2022-09-23T14:48:14.888Z,17.46
2022-09-23T14:50:52.238Z,17.59
2022-09-23T14:53:24.827Z,17.36
2022-09-23T14:55:54.133Z,17.33
2022-09-23T14:58:24.297Z,17.31
2022-09-23T15:01:01.580Z,17.22
2022-09-23T15:03:28.873Z,17.12
2022-09-23T15:06:00.124Z,16.86
2022-09-23T15:08:27.923Z,16.81
2022-09-23T15:10:55.256Z,16.67
2022-09-23T15:13:30.640Z,16.48
2022-09-23T15:15:58.107Z,16.45
2022-09-23T15:18:26.899Z,16.32
2022-09-23T15:21:00.959Z,16.24
2022-09-23T15:23:47.503Z,16.02
2022-09-23T15:26:25.525Z,15.79
2022-09-23T15:28:56.072Z,15.46
2022-09-23T15:31:26.654Z,15.42
2022-09-23T15:33:53.875Z,15.24
2022-09-23T15:36:23.312Z,15.15
2022-09-23T15:38:50.151Z,15.12
2022-09-23T15:41:19.788Z,15.02
2022-09-23T15:43:47.338Z,15.00
2022-09-23T15:46:20.372Z,14.94
2022-09-23T15:49:00.212Z,14.82
2022-09-23T15:51:28.137Z,14.80
2022-09-23T15:53:56.515Z,14.60
2022-09-23T15:56:24.222Z,14.30
2022-09-23T15:58:51.245Z,14.25
2022-09-23T16:01:24.184Z,14.14
2022-09-23T16:03:51.062Z,13.97
2022-09-23T16:06:17.920Z,14.04
2022-09-23T16:08:44.752Z,13.94
2022-09-23T16:11:24.211Z,13.95
2022-09-23T16:13:51.416Z,14.04
2022-09-23T16:16:22.218Z,13.90
2022-09-23T16:18:51.318Z,13.82
2022-09-23T16:21:20.232Z,13.75
2022-09-23T16:23:49.331Z,13.72
2022-09-23T16:26:26.978Z,13.55
2022-09-23T16:28:55.409Z,13.46
2022-09-23T16:31:25.356Z,13.16
2022-09-23T16:33:53.682Z,13.21
2022-09-23T16:36:31.807Z,13.11
2022-09-23T16:39:00.293Z,13.02
2022-09-23T16:41:33.822Z,13.02
2022-09-23T16:44:02.312Z,12.88
2022-09-23T16:46:29.542Z,12.76
2022-09-23T16:48:57.775Z,12.74
2022-09-23T16:51:29.636Z,12.71
2022-09-23T16:53:57.786Z,12.64
2022-09-23T16:56:28.800Z,12.57
2022-09-23T16:58:56.543Z,12.57
2022-09-23T17:01:44.280Z,12.53
2022-09-23T17:04:11.900Z,12.38
2022-09-23T17:06:50.278Z,12.25
2022-09-23T17:09:23.336Z,12.00
2022-09-23T17:12:01.603Z,11.93
2022-09-23T17:14:31.620Z,11.70
2022-09-23T17:16:58.961Z,11.65
2022-09-23T17:19:25.863Z,11.61
2022-09-23T17:21:53.448Z,11.60
2022-09-23T17:24:20.293Z,11.58
2022-09-23T17:26:52.035Z,11.56
2022-09-23T17:29:19.485Z,11.57
2022-09-23T17:31:46.805Z,11.48
2022-09-23T17:34:13.581Z,11.39
2022-09-23T17:36:40.645Z,11.37
2022-09-23T17:39:07.494Z,11.50
2022-09-23T17:41:34.305Z,11.26
2022-09-23T17:44:01.252Z,11.15
2022-09-23T17:46:29.025Z,11.08
2022-09-23T17:48:56.395Z,10.95
2022-09-23T17:51:24.179Z,10.80
2022-09-23T17:53:51.023Z,10.86
2022-09-23T17:56:25.631Z,10.75
2022-09-23T17:58:53.746Z,10.77
2022-09-23T18:01:23.114Z,10.75
2022-09-23T18:03:58.029Z,10.85
2022-09-23T18:06:26.724Z,10.80
2022-09-23T18:08:53.536Z,10.72
2022-09-23T18:11:22.785Z,10.58
2022-09-23T18:13:52.654Z,10.53
2022-09-23T18:16:20.555Z,10.51
2022-09-23T18:18:55.872Z,10.39
2022-09-23T18:21:24.058Z,10.39
2022-09-23T18:23:50.959Z,10.36
2022-09-23T18:26:22.125Z,10.27
2022-09-23T18:28:49.621Z,10.09
2022-09-23T18:31:16.711Z,10.13
2022-09-23T18:33:43.493Z,10.14
2022-09-23T18:36:10.115Z,10.07
2022-09-23T18:38:36.741Z,10.12
2022-09-23T18:41:03.655Z,10.03
2022-09-23T18:43:40.747Z,10.04
2022-09-23T18:46:19.805Z,10.11
2022-09-23T18:49:05.682Z,10.01
2022-09-23T18:51:34.839Z,9.90
2022-09-23T18:54:03.610Z,9.82
2022-09-23T18:56:37.358Z,9.72
2022-09-23T18:59:08.684Z,9.76
2022-09-23T19:01:35.658Z,9.67
2022-09-23T19:04:02.939Z,9.57
2022-09-23T19:06:31.972Z,9.54
2022-09-23T19:08:58.985Z,9.35
2022-09-23T19:11:25.727Z,9.36
2022-09-23T19:13:58.075Z,9.36
2022-09-23T19:16:26.026Z,9.41
2022-09-23T19:18:53.384Z,9.14
2022-09-23T19:21:21.776Z,9.14
2022-09-23T19:23:55.495Z,9.22
2022-09-23T19:26:25.750Z,9.07
2022-09-23T19:28:54.704Z,9.04
2022-09-23T19:31:28.621Z,9.04
2022-09-23T19:34:10.831Z,9.09
2022-09-23T19:36:39.702Z,9.11
2022-09-23T19:39:14.661Z,9.06
2022-09-23T19:41:41.487Z,9.02
2022-09-23T19:44:08.310Z,8.92
2022-09-23T19:46:37.151Z,8.88
2022-09-23T19:49:05.732Z,8.74
2022-09-23T19:51:36.104Z,8.84
2022-09-23T19:54:04.304Z,8.68
2022-09-23T19:56:32.444Z,8.71
2022-09-23T19:58:59.856Z,8.71
2022-09-23T20:01:28.557Z,8.63
2022-09-23T20:03:55.210Z,8.60
2022-09-23T20:06:22.287Z,8.57
2022-09-23T20:08:49.921Z,8.59
2022-09-23T20:11:17.509Z,8.47
2022-09-23T20:13:47.161Z,8.40
2022-09-23T20:16:19.025Z,8.46
2022-09-23T20:18:46.811Z,8.44
2022-09-23T20:21:15.272Z,8.36
2022-09-23T20:23:42.476Z,8.28
2022-09-23T20:26:28.649Z,8.17
2022-09-23T20:28:55.482Z,8.08
2022-09-23T20:31:22.995Z,8.08
2022-09-23T20:33:58.396Z,8.06
2022-09-23T20:36:29.221Z,8.00
2022-09-23T20:38:57.398Z,7.97
2022-09-23T20:41:24.214Z,7.97
2022-09-23T20:43:54.718Z,7.86
2022-09-23T20:46:24.226Z,7.85
2022-09-23T20:48:50.950Z,7.93
2022-09-23T20:51:18.091Z,7.91
2022-09-23T20:53:45.850Z,7.92
2022-09-23T20:56:14.051Z,7.77
2022-09-23T20:58:40.666Z,7.71
2022-09-23T21:01:11.659Z,7.72
2022-09-23T21:03:40.351Z,7.73
2022-09-23T21:06:08.615Z,7.71
2022-09-23T21:08:36.884Z,7.71
2022-09-23T21:11:07.956Z,7.74
2022-09-23T21:13:35.307Z,7.71
2022-09-23T21:16:06.959Z,7.52
2022-09-23T21:18:35.212Z,7.54
2022-09-23T21:21:02.149Z,7.58
2022-09-23T21:23:31.098Z,7.67
2022-09-23T21:26:11.338Z,7.62
2022-09-23T21:28:42.349Z,7.68
2022-09-23T21:31:22.558Z,7.51
2022-09-23T21:33:56.663Z,7.52
2022-09-23T21:36:24.734Z,7.55
2022-09-23T21:38:52.311Z,7.50
2022-09-23T21:41:19.689Z,7.53
2022-09-23T21:43:46.373Z,7.56
2022-09-23T21:46:15.414Z,7.55
2022-09-23T21:48:42.700Z,7.42
2022-09-23T21:51:14.105Z,7.44
2022-09-23T21:53:41.687Z,7.39
2022-09-23T21:56:09.654Z,7.34
2022-09-23T21:58:38.162Z,7.36
2022-09-23T22:01:16.002Z,7.19
2022-09-23T22:03:43.943Z,7.27
2022-09-23T22:06:20.316Z,7.25
2022-09-23T22:08:49.433Z,7.23
2022-09-23T22:11:40.451Z,7.13
2022-09-23T22:14:10.615Z,7.12
2022-09-23T22:16:37.355Z,7.09
2022-09-23T22:19:07.372Z,7.07
2022-09-23T22:21:36.661Z,7.08
2022-09-23T22:24:05.098Z,7.06
2022-09-23T22:26:33.710Z,7.05
2022-09-23T22:29:19.254Z,7.06
2022-09-23T22:32:04.351Z,7.13
2022-09-23T22:34:48.933Z,7.06
2022-09-23T22:37:21.552Z,7.00
2022-09-23T22:39:48.135Z,7.02
2022-09-23T22:42:14.810Z,6.81
2022-09-23T22:44:41.598Z,6.79
2022-09-23T22:47:09.320Z,6.87
2022-09-23T22:49:36.201Z,6.84
2022-09-23T22:52:04.119Z,6.79
2022-09-23T22:54:33.963Z,6.82
2022-09-23T22:57:03.321Z,6.77
2022-09-23T22:59:29.947Z,6.71
2022-09-23T23:01:57.238Z,6.76
2022-09-23T23:04:23.945Z,6.76
2022-09-23T23:06:51.030Z,6.63
2022-09-23T23:09:19.027Z,6.52
2022-09-23T23:11:45.755Z,6.57
2022-09-23T23:14:14.209Z,6.64
2022-09-23T23:16:40.944Z,6.59
2022-09-23T23:19:13.171Z,6.55
2022-09-23T23:21:43.408Z,6.46
2022-09-23T23:24:20.144Z,6.53
2022-09-23T23:26:46.971Z,6.55
2022-09-23T23:29:16.065Z,6.53
2022-09-23T23:31:42.958Z,6.64
2022-09-23T23:34:17.817Z,6.52
2022-09-23T23:36:45.927Z,6.52
2022-09-23T23:39:13.638Z,6.47
2022-09-23T23:41:41.704Z,6.55
2022-09-23T23:44:08.752Z,6.62
2022-09-23T23:46:37.282Z,6.62
2022-09-23T23:49:04.800Z,6.60
2022-09-23T23:51:31.585Z,6.44
2022-09-23T23:53:59.300Z,6.47
2022-09-23T23:56:26.827Z,6.55
2022-09-23T23:59:02.543Z,6.48
